Time;durP1;ratioP1;P1;durP2;ratioP2;P2;SDS_P1;SDS_P2;PMS_P1;PMS_P2;Temp;Humidity;BMP_temperature;BMP_pressure;BME280_temperature;BME280_humidity;BME280_pressure;Samples;Min_cycle;Max_cycle;Signal;HPM_P1;HPM_P2
2022/03/12 00:00:07;;;;;;;;;;;;;;;-1.78;100.00;95947.44;1034976;28;19913;-71
2022/03/12 00:00:38;;;;;;;;;;;;;;;-1.78;100.00;95950.78;1035454;28;19917;-71
2022/03/12 00:01:08;;;;;;;;;;;;;;;-1.80;100.00;95947.63;1034819;28;19967;-70
2022/03/12 00:01:39;;;;;;;;;;;;;;;-1.80;100.00;95945.03;1031087;28;20062;-71
2022/03/12 00:02:09;;;;;;;;;;;;;;;-1.82;100.00;95947.00;1026820;28;19954;-71
2022/03/12 00:02:39;;;;;;;;;;;;;;;-1.81;100.00;95958.88;1027206;28;20483;-71
2022/03/12 00:03:10;;;;;;;;;;;;;;;-1.81;100.00;95953.75;1030724;28;19918;-71
2022/03/12 00:03:40;;;;;;;;;;;;;;;-1.82;100.00;95952.13;1035075;28;19922;-71
2022/03/12 00:04:11;;;;;;;;;;;;;;;-1.84;100.00;95959.25;1034825;28;19917;-71
2022/03/12 00:04:42;;;;;;;;;;;;;;;-1.84;100.00;95948.97;1035066;28;20347;-71
2022/03/12 00:05:13;;;;;;;;;;;;;;;-1.84;100.00;95946.38;1034808;28;19922;-71
2022/03/12 00:05:54;;;;;;;;;;;;;;;-1.84;100.00;95956.69;1035517;28;19925;-71
2022/03/12 00:06:25;;;;;;;;;;;;;;;-1.84;100.00;95950.75;1039144;28;19909;-71
2022/03/12 00:06:55;;;;;;;;;;;;;;;-1.84;100.00;95948.16;1039296;28;20504;-71
2022/03/12 00:07:27;;;;;;;;;;;;;;;-1.85;100.00;95955.06;1030820;28;19918;-70
2022/03/12 00:08:00;;;;;;;;;;;;;;;-1.86;100.00;95950.91;1028018;28;20446;-71
2022/03/12 00:08:42;;;;;;;;;;;;;;;-1.87;100.00;95959.59;1022969;29;20341;-71
2022/03/12 00:09:12;;;;;;;;;;;;;;;-1.88;100.00;95958.00;1026952;28;19922;-71
2022/03/12 00:09:43;;;;;;;;;;;;;;;-1.88;100.00;95954.63;1026969;28;20423;-71
2022/03/12 00:10:13;;;;;;;;;;;;;;;-1.90;100.00;95952.25;1026862;28;19922;-70
2022/03/12 00:10:44;;;;;;;;;;;;;;;-1.90;100.00;95944.53;1023131;29;19922;-71
2022/03/12 00:11:18;;;;;;;;;;;;;;;-1.92;100.00;95957.56;1027006;28;19918;-72
2022/03/12 00:11:55;;;;;;;;;;;;;;;-1.92;100.00;95952.41;1032093;28;20109;-70
2022/03/12 00:12:30;;;;;;;;;;;;;;;-1.92;100.00;95951.63;1040725;28;19921;-71
2022/03/12 00:13:01;;;;;;;;;;;;;;;-1.92;100.00;95951.63;1035008;28;19973;-70
2022/03/12 00:13:31;;;;;;;;;;;;;;;-1.94;100.00;95946.66;1026890;28;20016;-71
2022/03/12 00:14:03;;;;;;;;;;;;;;;-1.95;100.00;95947.63;1027124;28;20102;-71
2022/03/12 00:14:35;;;;;;;;;;;;;;;-1.96;100.00;95947.81;1027942;28;19918;-71
2022/03/12 00:15:09;;;;;;;;;;;;;;;-1.95;100.00;95954.53;1031828;28;20319;-70
2022/03/12 00:15:39;;;;;;;;;;;;;;;-1.96;100.00;95958.09;1035072;28;20410;-72
2022/03/12 00:16:15;;;;;;;;;;;;;;;-1.93;100.00;95952.59;1035035;28;19948;-71
2022/03/12 00:16:46;;;;;;;;;;;;;;;-1.92;100.00;95954.19;1036000;28;19948;-71
2022/03/12 00:17:16;;;;;;;;;;;;;;;-1.93;100.00;95950.03;1039974;28;19921;-71
2022/03/12 00:17:47;;;;;;;;;;;;;;;-1.91;100.00;95951.44;1034928;28;19921;-71
2022/03/12 00:18:20;;;;;;;;;;;;;;;-1.92;100.00;95956.75;1034983;28;19989;-71
2022/03/12 00:18:52;;;;;;;;;;;;;;;-1.93;100.00;95955.16;1035026;28;20417;-71
2022/03/12 00:19:23;;;;;;;;;;;;;;;-1.95;100.00;95949.41;1036661;28;19914;-71
2022/03/12 00:19:54;;;;;;;;;;;;;;;-1.95;100.00;95951.97;1034607;28;19953;-71
2022/03/12 00:20:26;;;;;;;;;;;;;;;-1.97;100.00;95959.09;1030930;28;19914;-71
2022/03/12 00:21:02;;;;;;;;;;;;;;;-1.98;100.00;95957.47;1023105;29;19922;-71
2022/03/12 00:21:34;;;;;;;;;;;;;;;-1.96;100.00;95958.09;1022940;29;20009;-70
2022/03/12 00:22:05;;;;;;;;;;;;;;;-1.95;100.00;95954.53;1028110;28;19914;-71
2022/03/12 00:22:37;;;;;;;;;;;;;;;-1.96;100.00;95953.75;1034534;28;19917;-71
2022/03/12 00:23:10;;;;;;;;;;;;;;;-1.95;100.00;95954.53;1034988;28;19975;-71
2022/03/12 00:23:44;;;;;;;;;;;;;;;-1.95;100.00;95951.97;1022997;29;19930;-72
2022/03/12 00:24:16;;;;;;;;;;;;;;;-2.00;100.00;95956.88;1022680;29;19918;-71
2022/03/12 00:24:48;;;;;;;;;;;;;;;-1.97;100.00;95953.94;1024092;28;19927;-71
2022/03/12 00:25:22;;;;;;;;;;;;;;;-1.98;100.00;95949.75;1031599;28;19921;-71
2022/03/12 00:25:52;;;;;;;;;;;;;;;-1.99;100.00;95950.75;1030875;28;20372;-71
2022/03/12 00:26:23;;;;;;;;;;;;;;;-2.00;100.00;95952.50;1031909;28;19929;-70
2022/03/12 00:26:53;;;;;;;;;;;;;;;-2.01;100.00;95952.69;1035588;28;19975;-71
2022/03/12 00:27:24;;;;;;;;;;;;;;;-2.02;100.00;95951.09;1035174;28;19976;-71
2022/03/12 00:27:55;;;;;;;;;;;;;;;-2.01;100.00;95955.25;1030643;28;19910;-71
2022/03/12 00:28:26;;;;;;;;;;;;;;;-2.01;100.00;95955.25;1030726;28;20338;-71
2022/03/12 00:28:56;;;;;;;;;;;;;;;-2.01;100.00;95952.69;1023185;28;19907;-71
2022/03/12 00:29:27;;;;;;;;;;;;;;;-2.01;100.00;95957.81;1027013;28;19918;-71
2022/03/12 00:30:00;;;;;;;;;;;;;;;-2.02;100.00;95954.47;1030940;28;20280;-71
2022/03/12 00:30:31;;;;;;;;;;;;;;;-2.02;100.00;95948.53;1031148;28;19968;-71
2022/03/12 00:31:02;;;;;;;;;;;;;;;-2.01;100.00;95952.69;1035577;28;20015;-71
2022/03/12 00:31:33;;;;;;;;;;;;;;;-2.02;100.00;95948.53;1030882;28;20435;-71
2022/03/12 00:32:04;;;;;;;;;;;;;;;-2.02;100.00;95945.94;1023836;28;19914;-71
2022/03/12 00:32:38;;;;;;;;;;;;;;;-2.05;100.00;95954.00;1027650;28;19918;-71
2022/03/12 00:33:08;;;;;;;;;;;;;;;-2.03;100.00;95949.50;1025204;28;20365;-71
2022/03/12 00:33:38;;;;;;;;;;;;;;;-2.04;100.00;95953.06;1032780;28;19914;-71
2022/03/12 00:34:09;;;;;;;;;;;;;;;-2.04;100.00;95943.56;1035740;28;20354;-71
2022/03/12 00:34:39;;;;;;;;;;;;;;;-2.06;100.00;95949.84;1027691;28;19941;-70
2022/03/12 00:35:10;;;;;;;;;;;;;;;-2.06;100.00;95949.84;1027035;28;20058;-71
2022/03/12 00:35:40;;;;;;;;;;;;;;;-2.08;100.00;95947.44;1027960;28;20021;-71
2022/03/12 00:36:12;;;;;;;;;;;;;;;-2.07;100.00;95950.84;1027989;28;20304;-71
2022/03/12 00:36:42;;;;;;;;;;;;;;;-2.08;100.00;95956.94;1035653;28;20280;-71
2022/03/12 00:37:12;;;;;;;;;;;;;;;-2.09;100.00;95960.50;1031659;28;19959;-71
2022/03/12 00:37:43;;;;;;;;;;;;;;;-2.13;100.00;95954.91;1035857;28;19922;-71
2022/03/12 00:38:17;;;;;;;;;;;;;;;-2.14;100.00;95959.25;1031563;28;19910;-71
2022/03/12 00:38:47;;;;;;;;;;;;;;;-2.16;100.00;95958.63;1035603;28;19989;-71
2022/03/12 00:39:17;;;;;;;;;;;;;;;-2.14;100.00;95958.47;1031840;28;20438;-71
2022/03/12 00:39:48;;;;;;;;;;;;;;;-2.15;100.00;95960.25;1028576;28;19953;-71
2022/03/12 00:40:19;;;;;;;;;;;;;;;-2.15;100.00;95957.69;1030362;28;19906;-71
2022/03/12 00:40:49;;;;;;;;;;;;;;;-2.17;100.00;95959.63;1027549;28;20430;-71
2022/03/12 00:41:19;;;;;;;;;;;;;;;-2.18;100.00;95958.03;1031752;28;19913;-71
2022/03/12 00:41:50;;;;;;;;;;;;;;;-2.20;100.00;95959.97;1031956;28;19951;-71
2022/03/12 00:42:20;;;;;;;;;;;;;;;-2.38;100.00;95929.50;1027745;28;20380;-71
2022/03/12 00:42:50;;;;;;;;;;;;;;;-2.19;100.00;95956.41;1027736;28;20316;-71
2022/03/12 00:43:21;;;;;;;;;;;;;;;-2.21;100.00;95965.28;1027905;28;19918;-71
2022/03/12 00:43:51;;;;;;;;;;;;;;;-2.20;100.00;95957.41;1035722;28;19914;-72
2022/03/12 00:44:22;;;;;;;;;;;;;;;-2.18;100.00;95958.03;1035637;28;20004;-72
2022/03/12 00:44:52;;;;;;;;;;;;;;;-2.18;100.00;95957.19;1031715;28;19937;-71
2022/03/12 00:45:28;;;;;;;;;;;;;;;-2.19;100.00;95956.41;1035740;28;20288;-71
2022/03/12 00:45:59;;;;;;;;;;;;;;;-2.17;100.00;95957.03;1031754;28;20049;-71
2022/03/12 00:46:29;;;;;;;;;;;;;;;-2.16;100.00;95957.84;1032553;28;19971;-71
2022/03/12 00:47:01;;;;;;;;;;;;;;;-2.20;100.00;95959.97;1035937;28;19921;-71
2022/03/12 00:47:32;;;;;;;;;;;;;;;-2.21;100.00;95963.53;1039972;28;20287;-70
2022/03/12 00:48:02;;;;;;;;;;;;;;;-2.22;100.00;95961.09;1039964;28;20207;-71
2022/03/12 00:48:33;;;;;;;;;;;;;;;-2.22;100.00;95954.19;1031522;28;20023;-71
2022/03/12 00:49:03;;;;;;;;;;;;;;;-2.23;100.00;95962.88;1031376;28;19976;-72
2022/03/12 00:49:33;;;;;;;;;;;;;;;-2.22;100.00;95961.91;1031798;28;19918;-71
2022/03/12 00:50:04;;;;;;;;;;;;;;;-2.23;100.00;95960.31;1031844;28;20372;-71
2022/03/12 00:50:34;;;;;;;;;;;;;;;-2.22;100.00;95961.09;1031524;28;19985;-71
2022/03/12 00:51:05;;;;;;;;;;;;;;;-2.21;100.00;95963.53;1027745;28;19921;-71
2022/03/12 00:51:38;;;;;;;;;;;;;;;-2.24;100.00;95960.50;1027715;28;19910;-71
2022/03/12 00:52:08;;;;;;;;;;;;;;;-2.22;100.00;95967.03;1032017;28;20365;-71
2022/03/12 00:52:39;;;;;;;;;;;;;;;-2.23;100.00;95965.47;1032182;28;19920;-71
2022/03/12 00:53:09;;;;;;;;;;;;;;;-2.25;100.00;95962.25;1031753;28;19921;-71
2022/03/12 00:53:39;;;;;;;;;;;;;;;-2.24;100.00;95963.06;1031720;28;20326;-71
2022/03/12 00:54:10;;;;;;;;;;;;;;;-2.26;100.00;95965.81;1028382;28;19977;-70
2022/03/12 00:54:40;;;;;;;;;;;;;;;-2.28;100.00;95962.63;1035714;28;19983;-72
2022/03/12 00:55:11;;;;;;;;;;;;;;;-2.27;100.00;95963.44;1031671;28;20387;-71
2022/03/12 00:55:41;;;;;;;;;;;;;;;-2.26;100.00;95965.00;1027706;28;20336;-71
2022/03/12 00:56:12;;;;;;;;;;;;;;;-2.27;100.00;95966.00;1027575;28;20418;-71
2022/03/12 00:56:42;;;;;;;;;;;;;;;-2.29;100.00;95966.16;1027723;28;19922;-71
2022/03/12 00:57:13;;;;;;;;;;;;;;;-2.29;100.00;95970.50;1031610;28;19922;-71
2022/03/12 00:57:43;;;;;;;;;;;;;;;-2.26;100.00;95970.16;1027593;28;19918;-71
2022/03/12 00:58:13;;;;;;;;;;;;;;;-2.28;100.00;95965.22;1023779;28;19934;-71
2022/03/12 00:58:46;;;;;;;;;;;;;;;-2.27;100.00;95969.34;1027809;28;19921;-70
2022/03/12 00:59:17;;;;;;;;;;;;;;;-2.28;100.00;95970.34;1027763;28;20281;-71
2022/03/12 00:59:47;;;;;;;;;;;;;;;-2.28;100.00;95972.09;1027376;28;19934;-71
2022/03/12 01:00:19;;;;;;;;;;;;;;;-2.27;100.00;95968.56;1027648;28;19918;-72
2022/03/12 01:00:49;;;;;;;;;;;;;;;-2.24;100.00;95968.22;1024026;28;20494;-71
2022/03/12 01:01:19;;;;;;;;;;;;;;;-2.27;100.00;95974.50;1036222;28;19918;-72
2022/03/12 01:01:50;;;;;;;;;;;;;;;-2.28;100.00;95967.78;1035541;28;19925;-73
2022/03/12 01:02:21;;;;;;;;;;;;;;;-2.29;100.00;95966.16;1035865;28;19943;-71
2022/03/12 01:02:51;;;;;;;;;;;;;;;-2.29;100.00;95968.72;1039712;28;19923;-71
2022/03/12 01:03:21;;;;;;;;;;;;;;;-2.30;100.00;95969.72;1039839;28;20069;-71
2022/03/12 01:03:52;;;;;;;;;;;;;;;-2.28;100.00;95970.34;1039651;28;19917;-71
2022/03/12 01:04:22;;;;;;;;;;;;;;;-2.46;100.00;95954.44;1035837;28;20449;-71
2022/03/12 01:04:52;;;;;;;;;;;;;;;-2.31;100.00;95973.25;1035674;28;19917;-72
2022/03/12 01:05:27;;;;;;;;;;;;;;;-2.29;100.00;95975.66;1031793;28;20434;-71
2022/03/12 01:05:57;;;;;;;;;;;;;;;-2.31;100.00;95975.84;1036333;28;19921;-71
2022/03/12 01:06:30;;;;;;;;;;;;;;;-2.31;100.00;95978.41;1036934;28;19909;-71
2022/03/12 01:07:00;;;;;;;;;;;;;;;-2.31;100.00;95977.56;1036854;28;19924;-70
2022/03/12 01:07:31;;;;;;;;;;;;;;;-2.32;100.00;95971.66;1039722;28;19916;-72
2022/03/12 01:08:01;;;;;;;;;;;;;;;-2.33;100.00;95976.97;1041165;28;20518;-72
2022/03/12 01:08:32;;;;;;;;;;;;;;;-2.35;100.00;95974.56;1039735;28;20278;-71
2022/03/12 01:09:03;;;;;;;;;;;;;;;-2.35;100.00;95977.13;1035897;28;19909;-72
2022/03/12 01:09:34;;;;;;;;;;;;;;;-2.35;100.00;95974.56;1035563;28;19914;-71
2022/03/12 01:10:04;;;;;;;;;;;;;;;-2.35;100.00;95974.56;1031859;28;19918;-71
2022/03/12 01:10:35;;;;;;;;;;;;;;;-2.34;100.00;95977.97;1035722;28;20076;-71
2022/03/12 01:11:06;;;;;;;;;;;;;;;-2.34;100.00;95972.81;1035884;28;19913;-71
2022/03/12 01:11:39;;;;;;;;;;;;;;;-2.32;100.00;95976.78;1031779;28;19989;-71
2022/03/12 01:12:09;;;;;;;;;;;;;;;-2.35;100.00;95974.56;1031455;28;19922;-71
2022/03/12 01:12:40;;;;;;;;;;;;;;;-2.37;100.00;95977.31;1032197;28;19914;-71
2022/03/12 01:13:11;;;;;;;;;;;;;;;-2.35;100.00;95979.69;1035888;28;19920;-71
2022/03/12 01:13:41;;;;;;;;;;;;;;;-2.36;100.00;95975.53;1039908;28;19917;-71
2022/03/12 01:14:11;;;;;;;;;;;;;;;-2.37;100.00;95974.75;1035533;28;20284;-71
2022/03/12 01:14:42;;;;;;;;;;;;;;;-2.38;100.00;95982.66;1031428;28;19909;-72
2022/03/12 01:15:12;;;;;;;;;;;;;;;-2.35;100.00;95977.13;1031592;28;20387;-71
2022/03/12 01:15:42;;;;;;;;;;;;;;;-2.36;100.00;95978.13;1031643;28;19922;-75
2022/03/12 01:16:16;;;;;;;;;;;;;;;-2.37;100.00;95984.25;1035438;28;20383;-71
2022/03/12 01:16:46;;;;;;;;;;;;;;;-2.38;100.00;95977.50;1039906;28;19913;-71
2022/03/12 01:17:16;;;;;;;;;;;;;;;-2.40;100.00;95974.31;1039726;28;19913;-71
2022/03/12 01:17:47;;;;;;;;;;;;;;;-2.43;100.00;95977.22;1039689;28;20385;-71
2022/03/12 01:18:18;;;;;;;;;;;;;;;-2.41;100.00;95980.44;1035451;28;19918;-71
2022/03/12 01:18:48;;;;;;;;;;;;;;;-2.44;100.00;95973.06;1035652;28;19917;-70
2022/03/12 01:19:19;;;;;;;;;;;;;;;-2.44;100.00;95973.88;1035789;28;20280;-71
2022/03/12 01:19:49;;;;;;;;;;;;;;;-2.43;100.00;95974.66;1039794;28;19944;-71
2022/03/12 01:20:20;;;;;;;;;;;;;;;-2.44;100.00;95978.22;1039770;28;20406;-71
2022/03/12 01:20:50;;;;;;;;;;;;;;;-2.44;100.00;95978.22;1035753;28;20311;-71
2022/03/12 01:21:22;;;;;;;;;;;;;;;-2.43;100.00;95974.66;1035759;28;19917;-71
2022/03/12 01:21:52;;;;;;;;;;;;;;;-2.45;100.00;95976.59;1032224;28;20415;-71
2022/03/12 01:22:26;;;;;;;;;;;;;;;-2.44;100.00;95976.44;1031362;28;19914;-71
2022/03/12 01:22:56;;;;;;;;;;;;;;;-2.45;100.00;95976.59;1031631;28;19921;-71
2022/03/12 01:23:27;;;;;;;;;;;;;;;-2.45;100.00;95979.16;1031545;28;19914;-71
2022/03/12 01:23:58;;;;;;;;;;;;;;;-2.45;100.00;95976.59;1032135;28;19918;-71
2022/03/12 01:24:28;;;;;;;;;;;;;;;-2.45;100.00;95981.72;1035621;28;20283;-71
2022/03/12 01:24:59;;;;;;;;;;;;;;;-2.45;100.00;95986.88;1040868;28;19924;-71
2022/03/12 01:25:29;;;;;;;;;;;;;;;-2.46;100.00;95980.13;1043889;28;19948;-71
2022/03/12 01:25:59;;;;;;;;;;;;;;;-2.48;100.00;95984.66;1044134;28;19975;-71
2022/03/12 01:26:30;;;;;;;;;;;;;;;-2.49;100.00;95986.41;1043863;28;19916;-71
2022/03/12 01:27:00;;;;;;;;;;;;;;;-2.50;100.00;95984.84;1039812;28;19924;-71
2022/03/12 01:27:30;;;;;;;;;;;;;;;-2.48;100.00;95984.66;1039807;28;19957;-71
2022/03/12 01:28:01;;;;;;;;;;;;;;;-2.51;100.00;95988.38;1035751;28;19975;-71
2022/03/12 01:28:31;;;;;;;;;;;;;;;-2.53;100.00;95989.53;1033241;28;20474;-71
2022/03/12 01:29:02;;;;;;;;;;;;;;;-2.54;100.00;95993.06;1035895;28;20363;-71
2022/03/12 01:29:32;;;;;;;;;;;;;;;-2.54;100.00;95995.63;1035675;28;19917;-71
2022/03/12 01:30:04;;;;;;;;;;;;;;;-2.57;100.00;95994.22;1039834;28;19917;-71
2022/03/12 01:30:34;;;;;;;;;;;;;;;-2.56;100.00;95995.00;1035772;28;20311;-71
2022/03/12 01:31:05;;;;;;;;;;;;;;;-2.54;100.00;95998.22;1031561;28;19925;-71
2022/03/12 01:31:35;;;;;;;;;;;;;;;-2.54;100.00;95996.44;1027516;28;19925;-71
2022/03/12 01:32:05;;;;;;;;;;;;;;;-2.55;100.00;95996.59;1031458;28;19953;-69
2022/03/12 01:32:39;;;;;;;;;;;;;;;-2.56;100.00;95995.78;1027476;28;19969;-71
2022/03/12 01:33:09;;;;;;;;;;;;;;;-2.56;100.00;95995.78;1027854;28;19965;-71
2022/03/12 01:33:39;;;;;;;;;;;;;;;-2.59;100.00;96003.06;1030018;28;19929;-71
2022/03/12 01:34:10;;;;;;;;;;;;;;;-2.61;100.00;95992.97;1035951;28;19944;-72
2022/03/12 01:34:40;;;;;;;;;;;;;;;-2.63;100.00;96000.84;1035676;28;19917;-71
2022/03/12 01:35:10;;;;;;;;;;;;;;;-2.65;100.00;96000.22;1035387;28;19921;-71
2022/03/12 01:35:41;;;;;;;;;;;;;;;-2.66;100.00;96001.19;1035732;28;19917;-71
2022/03/12 01:36:11;;;;;;;;;;;;;;;-2.68;100.00;96002.34;1035612;28;20364;-71
2022/03/12 01:36:42;;;;;;;;;;;;;;;-2.71;100.00;96000.91;1027618;28;20233;-71
2022/03/12 01:37:19;;;;;;;;;;;;;;;-2.65;100.00;95999.41;1027353;28;20117;-71
2022/03/12 01:37:49;;;;;;;;;;;;;;;-2.64;100.00;96003.59;1028436;28;19922;-71
2022/03/12 01:38:26;;;;;;;;;;;;;;;-2.68;100.00;96000.56;1033294;28;20016;-71
2022/03/12 01:38:56;;;;;;;;;;;;;;;-2.69;100.00;96003.28;1041297;28;19995;-71
2022/03/12 01:39:27;;;;;;;;;;;;;;;-2.71;100.00;95995.78;1043854;28;20444;-71
2022/03/12 01:39:58;;;;;;;;;;;;;;;-2.71;100.00;95998.34;1031903;28;19921;-71
2022/03/12 01:40:28;;;;;;;;;;;;;;;-2.91;100.00;95976.69;1031654;28;19964;-71
2022/03/12 01:41:02;;;;;;;;;;;;;;;-2.74;100.00;96003.03;1031708;28;19917;-71
2022/03/12 01:41:33;;;;;;;;;;;;;;;-2.75;100.00;95999.66;1032112;28;19914;-72
2022/03/12 01:42:07;;;;;;;;;;;;;;;-2.78;100.00;96002.56;1037972;28;19944;-71
2022/03/12 01:42:37;;;;;;;;;;;;;;;-2.80;100.00;96001.94;1043985;28;19928;-71
2022/03/12 01:43:14;;;;;;;;;;;;;;;-2.80;100.00;95999.38;1043092;28;19920;-71
2022/03/12 01:43:46;;;;;;;;;;;;;;;-2.80;100.00;95994.25;1043540;28;20015;-71
2022/03/12 01:44:16;;;;;;;;;;;;;;;-2.81;100.00;95997.00;1035673;28;19921;-71
2022/03/12 01:44:46;;;;;;;;;;;;;;;-2.81;100.00;96000.34;1035535;28;19977;-71
2022/03/12 01:45:23;;;;;;;;;;;;;;;-2.81;100.00;95997.78;1031269;28;19918;-71
2022/03/12 01:45:53;;;;;;;;;;;;;;;-2.80;100.00;95999.38;1029292;28;20099;-71
2022/03/12 01:46:29;;;;;;;;;;;;;;;-2.82;100.00;96000.50;1035772;28;19920;-71
2022/03/12 01:46:59;;;;;;;;;;;;;;;-2.86;100.00;96000.06;1028972;28;19926;-71
2022/03/12 01:47:30;;;;;;;;;;;;;;;-2.83;100.00;95994.56;1030606;28;19920;-71
2022/03/12 01:48:01;;;;;;;;;;;;;;;-2.82;100.00;96001.31;1031815;28;19918;-71
2022/03/12 01:48:33;;;;;;;;;;;;;;;-2.83;100.00;95999.72;1032055;28;19932;-71
2022/03/12 01:49:05;;;;;;;;;;;;;;;-2.81;100.00;95997.78;1035503;28;19922;-71
2022/03/12 01:49:36;;;;;;;;;;;;;;;-2.80;100.00;95998.56;1035746;28;19914;-71
2022/03/12 01:50:06;;;;;;;;;;;;;;;-2.82;100.00;95993.59;1036052;28;20016;-71
2022/03/12 01:50:37;;;;;;;;;;;;;;;-2.80;100.00;95989.09;1036186;28;19924;-71
2022/03/12 01:51:07;;;;;;;;;;;;;;;-2.79;100.00;95990.69;1035981;28;19914;-71
2022/03/12 01:51:38;;;;;;;;;;;;;;;-2.80;100.00;95988.31;1039550;28;19955;-70
2022/03/12 01:52:09;;;;;;;;;;;;;;;-2.79;100.00;95989.91;1039586;28;20295;-71
2022/03/12 01:52:39;;;;;;;;;;;;;;;-2.79;100.00;95990.69;1039789;28;20267;-71
2022/03/12 01:53:10;;;;;;;;;;;;;;;-2.76;100.00;95984.41;1035815;28;19917;-71
2022/03/12 01:53:40;;;;;;;;;;;;;;;-2.75;100.00;95986.81;1031353;28;19953;-71
2022/03/12 02:59:09;;;;;;;;;;;;;;;-2.91;100.00;95974.13;1043773;28;19956;-71
2022/03/12 02:59:43;;;;;;;;;;;;;;;-2.92;100.00;95969.94;1041726;28;19921;-71
2022/03/12 03:00:15;;;;;;;;;;;;;;;-2.91;100.00;95971.53;1042166;28;19901;-71
2022/03/12 03:00:47;;;;;;;;;;;;;;;-2.90;100.00;95978.28;1038792;28;20462;-74
2022/03/12 03:01:17;;;;;;;;;;;;;;;-2.91;100.00;95968.97;1041397;28;19913;-71
2022/03/12 03:01:48;;;;;;;;;;;;;;;-2.93;100.00;95974.28;1039529;28;19920;-72
2022/03/12 03:02:23;;;;;;;;;;;;;;;-2.92;100.00;95975.06;1039531;28;20417;-70
2022/03/12 03:02:54;;;;;;;;;;;;;;;-2.91;100.00;95976.69;1031207;28;19914;-71
2022/03/12 03:03:26;;;;;;;;;;;;;;;-2.93;100.00;95973.47;1032051;28;19918;-71
2022/03/12 03:03:57;;;;;;;;;;;;;;;-2.93;100.00;95976.03;1035458;28;19941;-71
2022/03/12 03:04:27;;;;;;;;;;;;;;;-2.90;100.00;95965.44;1032134;28;20029;-73
2022/03/12 03:04:58;;;;;;;;;;;;;;;-2.88;100.00;95971.22;1031780;28;19961;-70
2022/03/12 03:06:04;;;;;;;;;;;;;;;-2.93;100.00;95979.41;1031393;28;20280;-71
2022/03/12 03:06:35;;;;;;;;;;;;;;;-2.93;100.00;95981.19;1030813;28;20065;-71
2022/03/12 03:07:06;;;;;;;;;;;;;;;-2.93;100.00;95973.47;1033340;28;19914;-71
2022/03/12 03:07:37;;;;;;;;;;;;;;;-2.93;100.00;95978.59;1035363;28;19927;-71
2022/03/12 03:08:09;;;;;;;;;;;;;;;-2.93;100.00;95976.84;1031304;28;19922;-70
2022/03/12 03:08:39;;;;;;;;;;;;;;;-2.92;100.00;95975.06;1031237;28;19921;-71
2022/03/12 03:09:10;;;;;;;;;;;;;;;-2.94;100.00;95972.69;1031734;28;20315;-71
2022/03/12 03:09:40;;;;;;;;;;;;;;;-2.94;100.00;95977.03;1035244;28;20390;-71
2022/03/12 03:10:33;;;;;;;;;;;;;;;-2.95;100.00;95965.97;1035388;28;19921;-71
2022/03/12 03:11:08;;;;;;;;;;;;;;;-2.95;100.00;95975.41;1038467;28;20004;-72
2022/03/12 03:11:39;;;;;;;;;;;;;;;-2.95;100.00;95968.53;1035766;28;19920;-71
2022/03/12 03:12:10;;;;;;;;;;;;;;;-2.96;100.00;95973.81;1035412;28;19914;-71
2022/03/12 03:12:41;;;;;;;;;;;;;;;-2.97;100.00;95975.59;1035185;28;20419;-71
2022/03/12 03:13:16;;;;;;;;;;;;;;;-2.97;100.00;95967.88;1035376;28;20020;-71
2022/03/12 03:13:48;;;;;;;;;;;;;;;-2.98;100.00;95973.22;1031293;28;20029;-71
2022/03/12 03:14:19;;;;;;;;;;;;;;;-2.97;100.00;95972.22;1028207;28;19925;-71
2022/03/12 03:14:50;;;;;;;;;;;;;;;-2.96;100.00;95973.81;1027855;28;20008;-72
2022/03/12 03:15:21;;;;;;;;;;;;;;;-2.99;100.00;95974.94;1027201;28;19922;-71
2022/03/12 03:15:54;;;;;;;;;;;;;;;-2.99;100.00;95969.81;1031314;28;19922;-71
2022/03/12 03:16:30;;;;;;;;;;;;;;;-3.00;100.00;95967.44;1031677;28;19922;-71
2022/03/12 03:17:01;;;;;;;;;;;;;;;-3.00;100.00;95968.22;1037763;28;19925;-71
2022/03/12 03:17:37;;;;;;;;;;;;;;;-2.98;100.00;95968.06;1035328;28;19944;-71
2022/03/12 03:18:10;;;;;;;;;;;;;;;-2.99;100.00;95974.16;1035289;28;20030;-71
2022/03/12 03:18:42;;;;;;;;;;;;;;;-2.99;100.00;95969.03;1035460;28;19937;-72
2022/03/12 03:19:14;;;;;;;;;;;;;;;-3.00;100.00;95972.56;1036652;28;19972;-71
2022/03/12 03:19:45;;;;;;;;;;;;;;;-3.02;100.00;95971.94;1039495;28;19913;-72
2022/03/12 03:20:16;;;;;;;;;;;;;;;-3.03;100.00;95968.56;1031147;28;20100;-71
2022/03/12 03:20:46;;;;;;;;;;;;;;;-3.05;100.00;95967.13;1035325;28;19921;-71
2022/03/12 03:21:16;;;;;;;;;;;;;;;-3.05;100.00;95965.41;1039454;28;20271;-71
2022/03/12 03:21:47;;;;;;;;;;;;;;;-3.04;100.00;95961.06;1038096;28;19920;-71
2022/03/12 03:22:17;;;;;;;;;;;;;;;-3.04;100.00;95971.31;1039509;28;19998;-71
2022/03/12 03:22:48;;;;;;;;;;;;;;;-3.04;100.00;95972.13;1039485;28;19921;-71
2022/03/12 03:23:18;;;;;;;;;;;;;;;-3.06;100.00;95968.13;1039141;28;19921;-71
2022/03/12 03:23:48;;;;;;;;;;;;;;;-3.08;100.00;95966.53;1043485;28;19991;-71
2022/03/12 03:24:19;;;;;;;;;;;;;;;-3.08;100.00;95966.53;1043527;28;19924;-71
2022/03/12 03:24:49;;;;;;;;;;;;;;;-3.09;100.00;95961.56;1043657;28;19952;-71
2022/03/12 03:25:22;;;;;;;;;;;;;;;-3.10;100.00;95967.66;1039274;28;19960;-71
2022/03/12 03:25:53;;;;;;;;;;;;;;;-3.11;100.00;95966.06;1039561;28;20389;-71
2022/03/12 03:26:38;;;;;;;;;;;;;;;-3.11;100.00;95966.88;1035349;28;19902;-71
2022/03/12 03:27:08;;;;;;;;;;;;;;;-3.13;100.00;95968.81;1035358;28;19940;-71
2022/03/12 03:27:38;;;;;;;;;;;;;;;-3.15;100.00;95970.75;1027033;28;20414;-71
2022/03/12 03:28:09;;;;;;;;;;;;;;;-3.14;100.00;95967.22;1029367;28;19911;-71
2022/03/12 03:28:40;;;;;;;;;;;;;;;-3.13;100.00;95968.81;1027955;28;20351;-71
2022/03/12 03:29:10;;;;;;;;;;;;;;;-3.13;100.00;95968.81;1031663;28;19906;-71
2022/03/12 03:29:40;;;;;;;;;;;;;;;-3.13;100.00;95971.38;1035223;28;19905;-70
2022/03/12 03:30:11;;;;;;;;;;;;;;;-3.14;100.00;95967.22;1035278;28;20367;-72
2022/03/12 03:30:41;;;;;;;;;;;;;;;-3.13;100.00;95962.88;1035500;28;19934;-70
2022/03/12 03:31:15;;;;;;;;;;;;;;;-3.12;100.00;95965.28;1035894;28;19955;-71
2022/03/12 03:31:46;;;;;;;;;;;;;;;-3.12;100.00;95965.28;1035089;28;20037;-71
2022/03/12 03:32:19;;;;;;;;;;;;;;;-3.13;100.00;95962.88;1035436;28;20318;-70
2022/03/12 03:32:50;;;;;;;;;;;;;;;-3.14;100.00;95964.66;1035535;28;20146;-71
2022/03/12 03:33:20;;;;;;;;;;;;;;;-3.15;100.00;95965.63;1035744;28;19909;-71
2022/03/12 03:33:51;;;;;;;;;;;;;;;-3.15;100.00;95964.84;1043295;28;19913;-71
2022/03/12 03:34:21;;;;;;;;;;;;;;;-3.14;100.00;95963.84;1039447;28;19913;-71
2022/03/12 03:34:51;;;;;;;;;;;;;;;-3.12;100.00;95964.47;1035356;28;20246;-71
2022/03/12 03:35:22;;;;;;;;;;;;;;;-3.14;100.00;95959.50;1032753;28;20018;-72
2022/03/12 03:35:55;;;;;;;;;;;;;;;-3.14;100.00;95969.00;1031260;28;20416;-71
2022/03/12 03:36:25;;;;;;;;;;;;;;;-3.14;100.00;95967.22;1035762;28;19916;-71
2022/03/12 03:36:56;;;;;;;;;;;;;;;-3.13;100.00;95963.66;1040951;28;19916;-71
2022/03/12 03:37:26;;;;;;;;;;;;;;;-3.16;100.00;95963.22;1039526;28;19906;-71
2022/03/12 03:37:57;;;;;;;;;;;;;;;-3.14;100.00;95962.09;1039416;28;19909;-71
2022/03/12 03:38:28;;;;;;;;;;;;;;;-3.15;100.00;95960.50;1039312;28;20324;-71
2022/03/12 03:38:58;;;;;;;;;;;;;;;-3.16;100.00;95969.13;1039297;28;19920;-71
2022/03/12 03:39:29;;;;;;;;;;;;;;;-3.15;100.00;95965.63;1035394;28;19914;-71
2022/03/12 03:40:02;;;;;;;;;;;;;;;-3.15;100.00;95969.97;1031152;28;19910;-70
2022/03/12 03:40:33;;;;;;;;;;;;;;;-3.15;100.00;95965.63;1030148;28;19956;-71
2022/03/12 03:41:03;;;;;;;;;;;;;;;-3.15;100.00;95970.75;1028210;28;19958;-71
2022/03/12 03:41:33;;;;;;;;;;;;;;;-3.14;100.00;95969.78;1035957;28;19918;-71
2022/03/12 03:42:04;;;;;;;;;;;;;;;-3.16;100.00;95964.00;1040831;28;20403;-71
2022/03/12 03:42:37;;;;;;;;;;;;;;;-3.15;100.00;95964.84;1039380;28;20154;-71
2022/03/12 03:43:09;;;;;;;;;;;;;;;-3.16;100.00;95966.56;1031256;28;20239;-71
2022/03/12 03:43:39;;;;;;;;;;;;;;;-3.16;100.00;95971.72;1027078;28;19989;-71
2022/03/12 03:44:13;;;;;;;;;;;;;;;-3.17;100.00;95969.31;1026655;28;19917;-71
2022/03/12 03:44:43;;;;;;;;;;;;;;;-3.17;100.00;95966.75;1035152;28;19932;-71
2022/03/12 03:45:17;;;;;;;;;;;;;;;-3.19;100.00;95969.47;1039203;28;20272;-71
2022/03/12 03:45:48;;;;;;;;;;;;;;;-3.20;100.00;95967.09;1035385;28;19914;-70
2022/03/12 03:46:19;;;;;;;;;;;;;;;-3.20;100.00;95972.22;1035702;28;20020;-71